createdAt,value
2022-12-12T00:07:08.807Z,7.88
2022-12-12T00:09:27.948Z,7.97
2022-12-12T00:12:56.502Z,7.72
2022-12-12T00:16:31.417Z,7.97
2022-12-12T00:19:50.324Z,7.20
2022-12-12T00:23:09.224Z,7.20
2022-12-12T00:27:00.801Z,8.45
2022-12-12T00:34:02.848Z,7.80
2022-12-12T00:37:04.403Z,7.50
2022-12-12T00:40:06.704Z,8.02
2022-12-12T00:43:08.465Z,8.10
2022-12-12T00:46:14.997Z,8.57
2022-12-12T00:49:16.930Z,8.20
2022-12-12T00:52:18.528Z,7.63
2022-12-12T00:55:20.108Z,7.97
2022-12-12T00:58:21.734Z,8.38
2022-12-12T01:01:32.127Z,7.78
2022-12-12T01:04:33.753Z,8.67
2022-12-12T01:07:35.744Z,7.78
2022-12-12T01:10:37.350Z,8.52
2022-12-12T01:13:40.304Z,8.25
2022-12-12T01:16:41.862Z,7.20
2022-12-12T01:19:43.785Z,8.40
2022-12-12T01:22:45.803Z,8.68
2022-12-12T01:25:47.418Z,8.07
2022-12-12T01:28:49.621Z,8.15
2022-12-12T01:31:52.364Z,8.70
2022-12-12T01:34:54.034Z,7.93
2022-12-12T01:37:55.590Z,7.75
2022-12-12T01:40:57.138Z,8.05
2022-12-12T01:44:01.625Z,8.10
2022-12-12T01:47:03.464Z,8.88
2022-12-12T01:50:09.140Z,8.68
2022-12-12T01:53:13.124Z,7.75
2022-12-12T01:56:19.248Z,8.20
2022-12-12T01:59:24.280Z,8.13
2022-12-12T02:02:26.365Z,8.23
2022-12-12T02:05:36.036Z,7.73
2022-12-12T02:08:38.376Z,7.90
2022-12-12T02:11:49.111Z,7.55
2022-12-12T02:14:52.886Z,7.85
2022-12-12T02:18:13.111Z,7.97
2022-12-12T02:21:25.558Z,7.55
2022-12-12T02:24:39.486Z,8.00
2022-12-12T02:28:09.281Z,8.17
2022-12-12T02:31:46.291Z,8.32
2022-12-12T02:35:07.673Z,7.90
2022-12-12T02:38:27.780Z,7.90
2022-12-12T02:41:37.918Z,7.95
2022-12-12T02:44:54.829Z,7.78
2022-12-12T02:48:03.784Z,7.78
2022-12-12T02:51:08.802Z,8.05
2022-12-12T02:54:15.933Z,7.47
2022-12-12T02:57:20.501Z,7.88
2022-12-12T03:00:22.162Z,8.17
2022-12-12T03:03:59.454Z,8.10
2022-12-12T03:07:34.276Z,8.18
2022-12-12T03:10:49.765Z,9.23
2022-12-12T03:14:05.493Z,7.80
2022-12-12T03:17:23.455Z,8.88
2022-12-12T03:20:45.035Z,8.18
2022-12-12T03:23:51.260Z,8.23
2022-12-12T03:26:58.449Z,8.15
2022-12-12T03:30:05.708Z,8.75
2022-12-12T03:33:11.911Z,7.60
2022-12-12T03:36:23.564Z,8.40
2022-12-12T03:39:38.726Z,8.63
2022-12-12T03:43:09.809Z,8.20
2022-12-12T03:46:23.761Z,8.45
2022-12-12T03:49:31.000Z,8.45
2022-12-12T03:52:40.988Z,8.52
2022-12-12T03:55:53.418Z,7.63
2022-12-12T03:58:57.935Z,7.45
2022-12-12T04:02:21.838Z,7.70
2022-12-12T04:06:04.147Z,8.47
2022-12-12T04:09:32.366Z,8.15
2022-12-12T04:13:00.570Z,8.60
2022-12-12T04:16:04.668Z,8.13
2022-12-12T04:19:38.945Z,7.97
2022-12-12T04:23:11.321Z,8.93
2022-12-12T04:26:37.439Z,8.20
2022-12-12T04:29:59.423Z,7.80
2022-12-12T04:33:14.440Z,8.15
2022-12-12T04:36:19.954Z,7.20
2022-12-12T04:39:23.188Z,8.00
2022-12-12T04:42:29.552Z,7.97
2022-12-12T04:45:36.146Z,7.88
2022-12-12T04:48:44.110Z,8.27
2022-12-12T04:51:50.055Z,7.72
2022-12-12T04:55:01.071Z,7.97
2022-12-12T04:58:04.781Z,7.20
2022-12-12T05:01:15.730Z,7.60
2022-12-12T05:04:25.516Z,8.55
2022-12-12T05:07:40.600Z,8.05
2022-12-12T05:10:50.096Z,7.73
2022-12-12T05:13:51.731Z,7.95
2022-12-12T05:16:58.797Z,8.30
2022-12-12T05:20:00.352Z,7.83
2022-12-12T05:23:01.924Z,8.70
2022-12-12T05:26:18.215Z,7.75
2022-12-12T05:29:19.735Z,7.93
2022-12-12T05:32:21.331Z,7.03
2022-12-12T05:35:23.515Z,7.45
2022-12-12T05:38:25.067Z,7.97
2022-12-12T05:41:26.648Z,7.87
2022-12-12T05:44:28.256Z,7.10
2022-12-12T05:47:29.820Z,7.35
2022-12-12T05:50:31.443Z,7.40
2022-12-12T05:53:39.149Z,7.43
2022-12-12T05:56:43.993Z,6.93
2022-12-12T05:59:47.134Z,6.55
2022-12-12T06:02:49.693Z,7.65
2022-12-12T06:05:51.338Z,7.90
2022-12-12T06:08:52.873Z,7.47
2022-12-12T06:11:54.488Z,7.73
2022-12-12T06:14:56.004Z,6.90
2022-12-12T06:17:58.567Z,7.30
2022-12-12T06:21:11.351Z,6.87
2022-12-12T06:24:12.988Z,6.88
2022-12-12T06:27:14.549Z,7.05
2022-12-12T06:30:16.200Z,7.18
2022-12-12T06:33:17.769Z,6.97
2022-12-12T06:36:24.390Z,6.43
2022-12-12T06:39:26.189Z,6.60
2022-12-12T06:42:27.958Z,6.70
2022-12-12T06:45:29.509Z,6.55
2022-12-12T06:48:32.568Z,6.28
2022-12-12T06:51:36.294Z,6.70
2022-12-12T06:54:37.816Z,8.05
2022-12-12T06:57:39.335Z,7.80
2022-12-12T07:00:41.431Z,7.40
2022-12-12T07:03:42.985Z,7.22
2022-12-12T07:06:44.795Z,7.50
2022-12-12T07:09:46.953Z,7.60
2022-12-12T07:12:51.078Z,7.60
2022-12-12T07:15:56.123Z,7.00
2022-12-12T07:18:57.725Z,8.05
2022-12-12T07:22:02.836Z,8.77
2022-12-12T07:25:08.573Z,7.43
2022-12-12T07:28:11.758Z,9.55
2022-12-12T07:31:16.913Z,10.77
2022-12-12T07:34:18.543Z,10.90
2022-12-12T07:37:20.091Z,10.43
2022-12-12T07:40:21.682Z,10.50
2022-12-12T07:43:26.393Z,10.20
2022-12-12T07:46:28.415Z,15.18
2022-12-12T07:49:30.018Z,13.38
2022-12-12T07:52:31.728Z,11.23
2022-12-12T07:55:33.930Z,15.75
2022-12-12T07:58:35.941Z,12.60
2022-12-12T08:01:37.712Z,9.85
2022-12-12T08:04:39.310Z,7.85
2022-12-12T08:07:40.921Z,8.63
2022-12-12T08:10:42.530Z,7.65
2022-12-12T08:13:44.292Z,7.07
2022-12-12T08:16:45.869Z,6.97
2022-12-12T08:19:47.449Z,7.22
2022-12-12T08:22:49.266Z,7.87
2022-12-12T08:25:51.066Z,7.47
2022-12-12T08:28:53.472Z,7.65
2022-12-12T08:31:55.025Z,7.70
2022-12-12T08:34:59.725Z,7.32
2022-12-12T08:38:01.418Z,7.75
2022-12-12T08:41:03.519Z,6.38
2022-12-12T08:44:06.017Z,7.87
2022-12-12T08:47:07.632Z,7.07
2022-12-12T08:50:09.753Z,7.95
2022-12-12T08:53:11.955Z,7.27
2022-12-12T08:56:14.637Z,6.70
2022-12-12T08:59:16.264Z,6.70
2022-12-12T09:02:17.934Z,6.72
2022-12-12T09:05:19.549Z,6.78
2022-12-12T09:08:21.132Z,6.68
2022-12-12T09:11:23.337Z,6.68
2022-12-12T09:14:26.242Z,6.83
2022-12-12T09:17:27.789Z,6.50
2022-12-12T09:20:29.955Z,9.90
2022-12-12T09:23:32.879Z,7.10
2022-12-12T09:26:34.737Z,7.15
2022-12-12T09:29:36.266Z,13.45
2022-12-12T09:32:38.204Z,6.68
2022-12-12T09:35:40.364Z,6.18
2022-12-12T09:38:42.419Z,7.15
2022-12-12T09:41:43.995Z,7.63
2022-12-12T09:44:46.063Z,6.90
2022-12-12T09:47:53.202Z,6.55
2022-12-12T09:50:54.824Z,8.30
2022-12-12T09:53:56.898Z,6.97
2022-12-12T09:57:16.402Z,7.18
2022-12-12T10:00:18.807Z,6.25
2022-12-12T10:04:03.509Z,6.68
2022-12-12T10:07:15.649Z,6.53
2022-12-12T10:10:38.949Z,6.20
2022-12-12T10:13:40.719Z,6.63
2022-12-12T10:16:44.048Z,6.00
2022-12-12T10:19:50.676Z,6.10
2022-12-12T10:23:08.688Z,7.20
2022-12-12T10:26:22.077Z,6.20
2022-12-12T10:29:26.411Z,5.63
2022-12-12T10:33:10.422Z,6.45
2022-12-12T10:36:31.748Z,6.13
2022-12-12T10:39:48.886Z,5.55
2022-12-12T10:43:06.369Z,6.53
2022-12-12T10:46:19.892Z,6.32
2022-12-12T10:49:24.322Z,5.87
2022-12-12T10:52:25.881Z,6.20
2022-12-12T10:55:41.032Z,6.20
2022-12-12T10:58:44.015Z,5.70
2022-12-12T11:02:10.068Z,6.38
2022-12-12T11:05:29.719Z,5.95
2022-12-12T11:08:33.928Z,5.68
2022-12-12T11:11:36.008Z,8.48
2022-12-12T11:14:53.347Z,5.97
2022-12-12T11:18:04.257Z,5.85
2022-12-12T11:21:12.890Z,5.40
2022-12-12T11:24:18.284Z,6.00
2022-12-12T11:27:50.922Z,6.43
2022-12-12T11:30:55.838Z,6.20
2022-12-12T11:34:00.751Z,6.75
2022-12-12T11:37:02.837Z,5.50
2022-12-12T11:40:05.722Z,5.60
2022-12-12T11:43:16.059Z,5.57
2022-12-12T11:46:20.638Z,6.13
2022-12-12T11:49:22.250Z,6.47
2022-12-12T11:52:27.005Z,5.70
2022-12-12T11:55:57.013Z,6.15
2022-12-12T11:59:11.577Z,6.10
2022-12-12T12:02:26.362Z,9.00
2022-12-12T12:05:55.277Z,7.95
2022-12-12T12:09:23.020Z,5.60
2022-12-12T12:12:38.317Z,6.50
2022-12-12T12:15:58.238Z,6.88
2022-12-12T12:19:21.192Z,6.93
2022-12-12T12:22:30.862Z,7.55
2022-12-12T12:25:41.408Z,7.63
2022-12-12T12:28:51.704Z,7.85
2022-12-12T12:32:12.613Z,7.40
2022-12-12T12:35:34.408Z,8.37
2022-12-12T12:39:03.514Z,8.25
2022-12-12T12:42:20.064Z,7.00
2022-12-12T12:45:49.297Z,7.28
2022-12-12T12:48:55.667Z,7.55
2022-12-12T12:52:03.087Z,7.68
2022-12-12T12:55:14.783Z,7.88
2022-12-12T12:58:30.587Z,7.40
2022-12-12T13:01:37.449Z,8.77
2022-12-12T13:04:50.988Z,7.40
2022-12-12T13:08:02.832Z,7.10
2022-12-12T13:11:13.464Z,6.20
2022-12-12T13:14:34.377Z,6.43
2022-12-12T13:17:48.506Z,6.20
2022-12-12T13:21:12.222Z,6.07
2022-12-12T13:24:25.887Z,6.25
2022-12-12T13:27:29.912Z,6.03
2022-12-12T13:30:49.008Z,5.67
2022-12-12T13:34:01.364Z,5.88
2022-12-12T13:37:06.328Z,7.55
2022-12-12T13:40:22.452Z,8.77
2022-12-12T13:43:39.090Z,8.80
2022-12-12T13:46:41.383Z,8.77
2022-12-12T13:49:51.691Z,8.68
2022-12-12T13:53:08.551Z,7.82
2022-12-12T13:56:34.975Z,7.95
2022-12-12T14:00:07.081Z,8.30
2022-12-12T14:03:15.557Z,9.50
2022-12-12T14:06:19.928Z,8.50
2022-12-12T14:09:22.131Z,8.90
2022-12-12T14:12:31.547Z,10.70
2022-12-12T14:15:35.186Z,9.50
2022-12-12T14:18:41.504Z,9.68
2022-12-12T14:21:46.998Z,8.48
2022-12-12T14:24:59.250Z,8.85
2022-12-12T14:28:17.222Z,9.63
2022-12-12T14:31:18.937Z,12.40
2022-12-12T14:34:34.939Z,12.27
2022-12-12T14:38:12.010Z,9.35
2022-12-12T14:41:18.187Z,7.85
2022-12-12T14:44:37.631Z,8.53
2022-12-12T14:47:41.527Z,8.27
2022-12-12T14:50:58.130Z,9.93
2022-12-12T14:54:02.443Z,9.65
2022-12-12T14:57:07.592Z,8.73
2022-12-12T15:00:19.724Z,9.57
2022-12-12T15:03:33.273Z,10.63
2022-12-12T15:06:34.891Z,10.00
2022-12-12T15:09:39.228Z,13.68
2022-12-12T15:12:44.451Z,18.73
2022-12-12T15:15:50.230Z,14.70
2022-12-12T15:18:53.784Z,12.45
2022-12-12T15:21:55.888Z,11.82
2022-12-12T15:25:00.318Z,11.95
2022-12-12T15:28:02.212Z,11.30
2022-12-12T15:31:03.879Z,11.70
2022-12-12T15:34:31.009Z,10.60
2022-12-12T15:37:37.781Z,11.30
2022-12-12T15:40:40.885Z,11.15
2022-12-12T15:43:43.312Z,12.32
2022-12-12T15:46:47.681Z,12.67
2022-12-12T15:49:49.282Z,12.38
2022-12-12T15:53:05.552Z,11.45
2022-12-12T15:56:12.098Z,10.93
2022-12-12T15:59:31.997Z,10.65
2022-12-12T16:02:35.650Z,11.18
2022-12-12T16:05:39.444Z,11.27
2022-12-12T16:08:48.651Z,10.67
2022-12-12T16:11:50.272Z,11.68
2022-12-12T16:14:51.839Z,12.57
2022-12-12T16:18:10.129Z,12.50
2022-12-12T16:21:12.562Z,11.20
2022-12-12T16:24:23.391Z,12.18
2022-12-12T16:27:25.224Z,11.65
2022-12-12T16:30:28.451Z,11.23
2022-12-12T16:33:38.535Z,12.30
2022-12-12T16:36:42.482Z,12.60
2022-12-12T16:39:44.682Z,12.83
2022-12-12T16:42:59.570Z,13.15
2022-12-12T16:46:01.210Z,12.07
2022-12-12T16:49:04.685Z,11.53
2022-12-12T16:52:06.424Z,12.10
2022-12-12T16:55:26.216Z,10.45
2022-12-12T16:58:27.776Z,11.25
2022-12-12T17:01:32.239Z,11.35
2022-12-12T17:04:36.121Z,11.15
2022-12-12T17:07:37.662Z,11.50
2022-12-12T17:10:39.406Z,11.37
2022-12-12T17:13:48.733Z,11.52
2022-12-12T17:16:51.102Z,11.30
2022-12-12T17:19:52.967Z,11.00
2022-12-12T17:22:54.798Z,11.70
2022-12-12T17:26:03.157Z,11.65
2022-12-12T17:29:07.406Z,11.85
2022-12-12T17:32:10.062Z,12.52
2022-12-12T17:35:11.850Z,13.75
2022-12-12T17:38:16.399Z,14.60
2022-12-12T17:41:18.257Z,14.97
2022-12-12T17:44:19.955Z,15.15
2022-12-12T17:47:21.490Z,19.63
2022-12-12T17:50:23.033Z,17.67
2022-12-12T17:53:24.831Z,17.05
2022-12-12T17:56:27.518Z,19.02
2022-12-12T17:59:29.069Z,18.83
2022-12-12T18:02:31.915Z,17.92
2022-12-12T18:05:33.455Z,16.25
2022-12-12T18:08:35.759Z,15.45
2022-12-12T18:11:39.153Z,16.20
2022-12-12T18:14:40.768Z,15.82
2022-12-12T18:17:42.562Z,14.43
2022-12-12T18:20:44.107Z,14.93
2022-12-12T18:23:46.495Z,15.38
2022-12-12T18:26:55.736Z,14.80
2022-12-12T18:29:57.268Z,15.30
2022-12-12T18:33:02.958Z,14.90
2022-12-12T18:36:16.928Z,14.18
2022-12-12T18:39:18.598Z,16.23
2022-12-12T18:42:21.879Z,15.27
2022-12-12T18:45:24.046Z,17.08
2022-12-12T18:48:25.657Z,18.58
2022-12-12T18:51:28.170Z,16.67
2022-12-12T18:54:29.735Z,16.05
2022-12-12T18:57:31.867Z,15.43
2022-12-12T19:00:33.568Z,14.85
2022-12-12T19:03:39.031Z,15.10
2022-12-12T19:06:41.185Z,15.57
2022-12-12T19:09:45.753Z,15.23
2022-12-12T19:12:47.353Z,14.07
2022-12-12T19:15:48.945Z,13.73
2022-12-12T19:18:50.514Z,13.65
2022-12-12T19:21:52.462Z,14.40
2022-12-12T19:24:53.970Z,13.02
2022-12-12T19:27:55.566Z,12.80
2022-12-12T19:30:57.121Z,13.32
2022-12-12T19:33:58.789Z,13.13
2022-12-12T19:37:02.556Z,13.25
2022-12-12T19:40:04.374Z,14.27
2022-12-12T19:43:05.994Z,14.77
2022-12-12T19:46:19.797Z,16.52
2022-12-12T19:49:21.426Z,14.10
2022-12-12T19:52:22.979Z,14.83
2022-12-12T19:55:24.514Z,14.35
2022-12-12T19:58:26.093Z,15.43
2022-12-12T20:01:30.893Z,14.77
2022-12-12T20:04:33.477Z,11.93
2022-12-12T20:07:35.069Z,11.57
2022-12-12T20:10:36.709Z,12.07
2022-12-12T20:13:39.278Z,10.87
2022-12-12T20:16:40.843Z,10.20
2022-12-12T20:19:43.169Z,10.70
2022-12-12T20:22:44.722Z,10.97
2022-12-12T20:25:46.246Z,11.55
2022-12-12T20:28:47.951Z,11.73
2022-12-12T20:31:49.920Z,13.75
2022-12-12T20:34:51.562Z,13.77
2022-12-12T20:37:53.094Z,14.00
2022-12-12T20:40:54.604Z,10.32
2022-12-12T20:43:58.683Z,10.03
2022-12-12T20:47:00.953Z,10.15
2022-12-12T20:50:02.537Z,9.50
2022-12-12T20:53:04.105Z,9.27
2022-12-12T20:56:11.108Z,9.80
2022-12-12T20:59:12.842Z,9.45
2022-12-12T21:02:14.683Z,9.73
2022-12-12T21:05:16.533Z,9.30
2022-12-12T21:08:18.704Z,10.68
2022-12-12T21:11:25.460Z,10.45
2022-12-12T21:14:30.528Z,9.77
2022-12-12T21:17:32.252Z,9.40
2022-12-12T21:20:33.833Z,10.48
2022-12-12T21:23:35.411Z,10.53
2022-12-12T21:26:36.985Z,10.45
2022-12-12T21:29:38.789Z,10.07
2022-12-12T21:32:40.379Z,11.50
2022-12-12T21:35:41.959Z,10.60
2022-12-12T21:38:43.822Z,10.45
2022-12-12T21:41:45.425Z,11.73
2022-12-12T21:44:47.047Z,10.13
2022-12-12T21:47:48.624Z,10.63
2022-12-12T21:50:50.164Z,10.73
2022-12-12T21:53:51.750Z,9.63
2022-12-12T21:56:53.351Z,9.57
2022-12-12T21:59:54.922Z,10.23
2022-12-12T22:02:56.683Z,10.23
2022-12-12T22:05:58.472Z,9.38
2022-12-12T22:09:01.981Z,9.88
2022-12-12T22:12:04.638Z,8.32
2022-12-12T22:15:06.589Z,10.00
2022-12-12T22:18:08.198Z,8.93
2022-12-12T22:21:12.095Z,9.43
2022-12-12T22:24:14.573Z,9.03
2022-12-12T22:27:16.906Z,8.52
2022-12-12T22:30:18.444Z,8.75
2022-12-12T22:33:20.145Z,8.15
2022-12-12T22:36:26.278Z,8.43
2022-12-12T22:39:28.365Z,9.73
2022-12-12T22:42:29.973Z,8.85
2022-12-12T22:45:31.630Z,8.57
2022-12-12T22:48:34.382Z,8.85
2022-12-12T22:51:35.957Z,8.93
2022-12-12T22:54:37.662Z,9.67
2022-12-12T22:57:39.251Z,8.73
2022-12-12T23:00:40.791Z,9.10
2022-12-12T23:03:42.971Z,8.25
2022-12-12T23:06:44.533Z,8.80
2022-12-12T23:09:52.489Z,8.05
2022-12-12T23:12:54.237Z,7.50
2022-12-12T23:15:55.811Z,8.53
2022-12-12T23:18:57.663Z,8.63
2022-12-12T23:21:59.186Z,8.77
2022-12-12T23:25:00.814Z,8.70
2022-12-12T23:28:02.362Z,7.35
2022-12-12T23:31:12.908Z,7.97
2022-12-12T23:34:20.458Z,7.70
2022-12-12T23:37:23.849Z,7.38
2022-12-12T23:40:25.969Z,7.22
2022-12-12T23:43:28.467Z,7.93
2022-12-12T23:46:31.812Z,7.60
2022-12-12T23:49:33.417Z,7.50
2022-12-12T23:52:34.961Z,8.35
2022-12-12T23:55:36.492Z,7.43
2022-12-12T23:58:38.045Z,7.50
